Time;durP1;ratioP1;P1;durP2;ratioP2;P2;SDS_P1;SDS_P2;PMS_P1;PMS_P2;Temp;Humidity;BMP_temperature;BMP_pressure;BME280_temperature;BME280_humidity;BME280_pressure;Samples;Min_cycle;Max_cycle;Signal;HPM_P1;HPM_P2
2022/06/13 00:01:37;;;;;;;6.70;2.30;;;13.90;99.90;;;;;;6209531;23;20632;-91
2022/06/13 00:04:04;;;;;;;5.93;2.90;;;14.00;99.90;;;;;;6209675;23;20206;-90
2022/06/13 00:06:31;;;;;;;5.90;2.90;;;14.00;99.90;;;;;;6184640;23;20225;-90
2022/06/13 00:08:56;;;;;;;12.53;2.13;;;14.00;99.90;;;;;;6210407;23;20591;-90
2022/06/13 00:11:24;;;;;;;9.10;2.77;;;14.00;99.90;;;;;;6184174;23;20198;-90
2022/06/13 00:13:53;;;;;;;5.23;2.47;;;14.00;99.90;;;;;;6209524;23;20654;-91
2022/06/13 00:16:19;;;;;;;6.30;2.00;;;14.00;99.90;;;;;;6209439;23;20226;-90
2022/06/13 00:18:49;;;;;;;6.30;2.83;;;14.00;99.90;;;;;;6184557;23;20581;-90
2022/06/13 00:21:28;;;;;;;7.33;2.60;;;14.10;99.90;;;;;;6185152;23;20598;-90
2022/06/13 00:23:54;;;;;;;3.30;2.53;;;14.10;99.90;;;;;;6211349;23;20146;-90
2022/06/13 00:26:21;;;;;;;7.73;2.63;;;14.10;99.90;;;;;;6184524;23;20659;-91
2022/06/13 00:28:48;;;;;;;2.57;2.27;;;14.10;99.90;;;;;;6209129;23;20190;-90
2022/06/13 00:31:15;;;;;;;6.33;2.50;;;14.10;99.90;;;;;;6209367;23;20595;-90
2022/06/13 00:33:40;;;;;;;2.63;2.37;;;14.20;99.90;;;;;;6184572;23;20799;-89
2022/06/13 00:36:07;;;;;;;5.03;1.80;;;14.20;99.90;;;;;;6159697;23;20154;-91
2022/06/13 00:38:32;;;;;;;3.20;1.70;;;14.30;99.90;;;;;;6185139;23;20412;-91
2022/06/13 00:40:59;;;;;;;7.00;2.27;;;14.30;99.90;;;;;;6159539;23;20197;-92
2022/06/13 00:43:25;;;;;;;5.70;1.57;;;14.40;99.90;;;;;;6209675;23;20204;-91
2022/06/13 00:45:51;;;;;;;3.00;2.07;;;14.50;99.90;;;;;;6208967;23;20197;-90
2022/06/13 00:48:25;;;;;;;2.17;1.07;;;14.50;99.90;;;;;;6184375;23;20599;-91
2022/06/13 00:50:59;;;;;;;1.43;1.03;;;14.60;99.90;;;;;;6210220;23;20149;-90
2022/06/13 00:53:31;;;;;;;5.43;1.70;;;14.60;99.90;;;;;;6209200;23;20642;-90
2022/06/13 00:55:57;;;;;;;3.57;1.43;;;14.60;99.90;;;;;;6208830;23;20639;-91
2022/06/13 00:58:25;;;;;;;3.13;1.23;;;14.70;99.90;;;;;;6208881;23;20221;-91
2022/06/13 01:00:56;;;;;;;1.07;0.87;;;14.70;99.90;;;;;;6184724;23;20657;-91
2022/06/13 01:03:22;;;;;;;8.27;1.57;;;14.70;99.90;;;;;;6209203;23;20193;-91
2022/06/13 01:05:51;;;;;;;1.93;1.17;;;14.70;99.90;;;;;;6185345;23;20164;-91
2022/06/13 01:08:20;;;;;;;2.10;0.87;;;14.70;99.90;;;;;;6209054;23;20507;-90
2022/06/13 01:13:54;;;;;;;3.67;1.10;;;14.80;99.90;;;;;;6210510;23;20500;-90
2022/06/13 01:16:25;;;;;;;1.03;0.73;;;14.80;99.90;;;;;;6134344;23;20190;-90
2022/06/13 01:19:10;;;;;;;5.10;1.43;;;14.80;99.90;;;;;;6210814;23;20209;-90
2022/06/13 01:21:38;;;;;;;1.33;1.13;;;14.90;99.90;;;;;;6209757;23;20217;-92
2022/06/13 01:24:11;;;;;;;2.97;1.30;;;14.90;99.90;;;;;;6211178;23;20190;-91
2022/06/13 01:27:04;;;;;;;4.83;1.07;;;14.90;99.90;;;;;;6212211;23;20654;-93
2022/06/13 01:29:56;;;;;;;3.87;1.50;;;14.90;99.90;;;;;;6210343;23;20194;-89
2022/06/13 01:32:25;;;;;;;2.00;1.40;;;14.90;99.90;;;;;;6211013;23;20625;-90
2022/06/13 01:35:12;;;;;;;3.73;1.10;;;14.90;99.90;;;;;;6211029;23;20205;-89
2022/06/13 01:37:56;;;;;;;1.70;1.27;;;14.90;99.90;;;;;;6210253;23;20208;-88
2022/06/13 01:40:22;;;;;;;1.60;0.70;;;14.90;99.90;;;;;;6210442;23;20219;-89
2022/06/13 01:43:15;;;;;;;2.73;0.83;;;14.90;99.90;;;;;;6210442;23;20201;-90
2022/06/13 01:46:04;;;;;;;3.40;1.30;;;14.90;99.90;;;;;;6210251;23;20206;-88
2022/06/13 01:48:46;;;;;;;2.43;1.40;;;15.00;99.90;;;;;;6135643;23;20280;-89
2022/06/13 01:51:25;;;;;;;2.57;1.47;;;15.00;99.90;;;;;;6211193;23;20221;-91
2022/06/13 01:54:03;;;;;;;5.50;1.10;;;14.90;99.90;;;;;;6211664;23;20466;-89
2022/06/13 01:56:59;;;;;;;4.33;1.23;;;14.90;99.90;;;;;;6211069;23;20270;-89
2022/06/13 01:59:39;;;;;;;2.63;0.80;;;14.90;99.90;;;;;;6210781;23;20206;-90
2022/06/13 02:02:15;;;;;;;1.77;1.30;;;14.90;99.90;;;;;;6210424;23;20584;-89
2022/06/13 02:04:47;;;;;;;5.43;2.03;;;14.90;99.90;;;;;;6210790;23;20252;-89
2022/06/13 02:07:25;;;;;;;3.50;0.90;;;14.90;99.90;;;;;;6210513;23;20210;-89
2022/06/13 02:10:20;;;;;;;2.70;1.00;;;14.90;99.90;;;;;;6211260;23;20197;-89
2022/06/13 02:12:51;;;;;;;1.17;1.07;;;14.80;99.90;;;;;;6206128;23;20225;-90
2022/06/13 02:15:28;;;;;;;1.57;1.47;;;14.80;99.90;;;;;;6210373;23;20149;-89
2022/06/13 02:18:02;;;;;;;2.83;1.00;;;14.80;99.90;;;;;;6210526;23;20149;-90
2022/06/13 02:20:41;;;;;;;1.60;1.50;;;14.80;99.90;;;;;;6212234;23;20407;-89
2022/06/13 02:23:12;;;;;;;2.27;1.37;;;14.80;99.90;;;;;;6210244;23;20198;-90
2022/06/13 02:25:49;;;;;;;1.33;1.13;;;14.80;99.90;;;;;;6210628;23;20198;-89
2022/06/13 02:28:34;;;;;;;2.13;1.33;;;14.80;99.90;;;;;;6210443;23;20237;-89
2022/06/13 02:31:08;;;;;;;3.30;2.07;;;14.80;99.90;;;;;;6210748;23;20193;-90
2022/06/13 02:33:47;;;;;;;3.17;1.13;;;14.80;99.90;;;;;;6211423;23;20198;-89
2022/06/13 02:36:47;;;;;;;3.97;1.30;;;14.70;99.90;;;;;;6209951;23;20220;-90
2022/06/13 02:39:26;;;;;;;1.37;1.27;;;14.70;99.90;;;;;;6085101;23;20248;-90
2022/06/13 02:42:16;;;;;;;1.83;1.07;;;14.70;99.90;;;;;;6211715;23;20142;-91
2022/06/13 02:44:47;;;;;;;1.90;1.17;;;14.60;99.90;;;;;;6210076;23;20178;-90
2022/06/13 02:47:22;;;;;;;3.60;1.37;;;14.60;99.90;;;;;;6209135;23;20233;-88
2022/06/13 02:49:56;;;;;;;2.03;0.80;;;14.60;99.90;;;;;;6209689;23;20282;-90
2022/06/13 02:52:32;;;;;;;2.10;0.93;;;14.50;99.90;;;;;;6209234;23;20515;-90
2022/06/13 02:55:03;;;;;;;2.83;1.43;;;14.50;99.90;;;;;;6209317;23;20216;-89
2022/06/13 02:57:59;;;;;;;4.63;1.47;;;14.40;99.90;;;;;;6209258;23;20220;-90
2022/06/13 03:00:49;;;;;;;1.40;1.27;;;14.40;99.90;;;;;;6210181;23;20621;-90
2022/06/13 03:03:31;;;;;;;2.47;1.60;;;14.40;99.90;;;;;;6210291;23;20146;-91
2022/06/13 03:05:59;;;;;;;2.17;1.13;;;14.40;99.90;;;;;;6210684;23;20162;-90
2022/06/13 03:08:47;;;;;;;2.10;0.97;;;14.50;99.90;;;;;;6210213;23;20185;-89
2022/06/13 03:11:22;;;;;;;6.00;1.40;;;14.50;99.90;;;;;;6209316;23;20221;-89
2022/06/13 03:14:06;;;;;;;4.80;1.43;;;14.40;99.90;;;;;;6208677;23;20203;-91
2022/06/13 03:17:00;;;;;;;1.13;0.50;;;14.50;99.90;;;;;;6209163;23;20948;-91
2022/06/13 03:19:51;;;;;;;1.33;1.20;;;14.50;99.90;;;;;;6209946;23;20236;-91
2022/06/13 03:22:46;;;;;;;0.90;0.90;;;14.40;99.90;;;;;;6209356;23;20202;-90
2022/06/13 03:25:30;;;;;;;1.53;1.00;;;14.40;99.90;;;;;;6176858;23;20204;-91
2022/06/13 03:28:05;;;;;;;2.20;1.07;;;14.40;99.90;;;;;;6209219;23;20205;-90
2022/06/13 03:30:33;;;;;;;2.23;0.60;;;14.40;99.90;;;;;;6209479;23;20228;-90
2022/06/13 03:35:54;;;;;;;1.73;0.90;;;14.40;99.90;;;;;;6211691;23;20611;-90
2022/06/13 03:38:27;;;;;;;3.57;1.00;;;14.40;99.90;;;;;;6209999;23;20222;-90
2022/06/13 03:40:58;;;;;;;1.50;0.90;;;14.40;99.90;;;;;;6210076;23;20536;-90
2022/06/13 03:43:31;;;;;;;0.90;0.90;;;14.50;99.90;;;;;;6209296;23;20210;-90
2022/06/13 03:46:36;;;;;;;1.47;1.37;;;14.50;99.90;;;;;;6209204;23;20198;-89
2022/06/13 03:49:21;;;;;;;5.43;0.93;;;14.50;99.90;;;;;;6209060;23;20197;-90
2022/06/13 03:51:52;;;;;;;2.23;1.10;;;14.60;99.90;;;;;;6208778;23;20201;-91
2022/06/13 03:54:27;;;;;;;1.60;0.77;;;14.60;99.90;;;;;;6209740;23;20571;-90
2022/06/13 03:57:01;;;;;;;5.53;1.00;;;14.60;99.90;;;;;;6209644;23;20235;-89
2022/06/13 03:59:50;;;;;;;7.93;1.20;;;14.20;99.90;;;;;;6209466;23;20289;-91
2022/06/13 04:02:19;;;;;;;2.47;0.90;;;13.60;99.90;;;;;;6189125;23;20198;-90
2022/06/13 04:04:48;;;;;;;2.67;0.80;;;13.40;99.90;;;;;;6209213;23;20721;-89
2022/06/13 04:07:17;;;;;;;1.00;0.70;;;13.20;99.90;;;;;;6209753;23;20198;-89
2022/06/13 04:09:47;;;;;;;2.33;0.93;;;13.20;99.90;;;;;;6184353;23;20239;-90
2022/06/13 04:12:40;;;;;;;1.37;0.77;;;13.10;99.90;;;;;;6208983;23;20362;-89
2022/06/13 04:15:25;;;;;;;3.30;0.90;;;13.10;99.90;;;;;;6209216;23;20212;-90
2022/06/13 04:18:03;;;;;;;3.97;1.43;;;13.10;99.90;;;;;;6209648;23;20138;-89
2022/06/13 04:21:17;;;;;;;0.83;0.67;;;13.10;99.90;;;;;;6210079;23;20205;-89
2022/06/13 04:23:53;;;;;;;2.00;0.87;;;13.10;99.90;;;;;;6209935;23;20174;-89
2022/06/13 04:26:50;;;;;;;0.53;0.53;;;13.10;99.90;;;;;;6208667;23;20193;-89
2022/06/13 04:29:34;;;;;;;2.87;0.90;;;13.20;99.90;;;;;;6209918;23;20225;-91
2022/06/13 04:32:05;;;;;;;1.73;0.70;;;13.30;99.90;;;;;;6208618;23;20208;-90
2022/06/13 04:34:36;;;;;;;0.30;0.30;;;13.30;99.90;;;;;;6208679;23;20211;-91
2022/06/13 04:37:04;;;;;;;2.10;1.03;;;13.40;99.90;;;;;;6208659;23;20201;-89
2022/06/13 04:39:33;;;;;;;4.67;0.63;;;13.50;99.90;;;;;;6183552;23;20252;-91
2022/06/13 04:42:02;;;;;;;5.67;1.30;;;13.60;99.90;;;;;;6209064;23;20162;-91
2022/06/13 04:44:31;;;;;;;2.10;0.40;;;13.60;99.90;;;;;;6183767;23;20182;-92
2022/06/13 04:46:59;;;;;;;1.87;0.80;;;13.60;99.90;;;;;;6210854;23;20202;-94
2022/06/13 04:49:39;;;;;;;1.10;1.00;;;13.60;99.90;;;;;;6143571;23;20193;-92
2022/06/13 04:52:17;;;;;;;1.97;0.63;;;13.70;99.90;;;;;;6208944;23;20204;-94
2022/06/13 04:54:51;;;;;;;2.70;1.07;;;13.80;99.90;;;;;;6210277;23;20209;-93
2022/06/13 04:57:17;;;;;;;4.80;0.50;;;13.80;99.90;;;;;;6206745;23;20201;-90
2022/06/13 04:59:45;;;;;;;0.50;0.50;;;13.80;99.90;;;;;;6181874;23;20555;-92
2022/06/13 05:02:19;;;;;;;3.90;0.80;;;13.80;99.90;;;;;;6159268;23;20577;-90
2022/06/13 05:04:45;;;;;;;1.03;0.93;;;14.00;99.90;;;;;;6208212;23;20643;-91
2022/06/13 05:07:20;;;;;;;1.43;1.00;;;14.20;99.90;;;;;;6158411;23;20274;-91
2022/06/13 05:10:01;;;;;;;0.93;0.73;;;14.60;99.90;;;;;;6208196;23;20204;-91
2022/06/13 05:12:37;;;;;;;2.77;0.50;;;14.80;99.90;;;;;;6208371;23;20225;-90
2022/06/13 05:15:08;;;;;;;4.30;0.90;;;14.80;99.90;;;;;;6208460;23;20157;-91
2022/06/13 05:17:49;;;;;;;0.50;0.50;;;15.00;99.90;;;;;;6208751;23;20189;-91
2022/06/13 05:20:50;;;;;;;2.90;0.70;;;15.50;99.90;;;;;;6182557;23;20232;-92
2022/06/13 05:23:44;;;;;;;3.17;1.00;;;16.10;99.90;;;;;;6199828;23;20529;-91
2022/06/13 05:26:10;;;;;;;3.47;1.17;;;15.80;99.90;;;;;;6208163;23;20710;-88
2022/06/13 05:28:36;;;;;;;0.80;0.57;;;16.00;99.90;;;;;;6207885;23;20206;-89
2022/06/13 05:31:18;;;;;;;0.60;0.50;;;17.00;99.90;;;;;;6182628;23;20209;-88
2022/06/13 05:33:44;;;;;;;1.13;0.87;;;17.20;99.90;;;;;;6207885;23;20243;-90
2022/06/13 05:36:14;;;;;;;1.70;1.20;;;16.40;99.90;;;;;;6208328;23;20162;-88
2022/06/13 05:38:57;;;;;;;1.10;1.00;;;15.90;99.90;;;;;;6208341;23;20177;-91
2022/06/13 05:41:23;;;;;;;1.43;1.07;;;15.90;99.90;;;;;;6208113;23;20197;-94
2022/06/13 05:43:48;;;;;;;3.73;0.57;;;16.20;99.90;;;;;;6184048;23;20638;-94
2022/06/13 05:46:36;;;;;;;2.87;1.47;;;16.10;99.90;;;;;;6160503;23;20281;-92
2022/06/13 05:49:02;;;;;;;5.40;0.80;;;16.60;99.90;;;;;;6211408;23;20197;-95
2022/06/13 05:51:28;;;;;;;0.67;0.60;;;18.30;99.90;;;;;;6161140;23;20784;-91
2022/06/13 05:53:57;;;;;;;2.43;1.13;;;17.80;99.90;;;;;;6159931;23;20249;-90
2022/06/13 05:56:24;;;;;;;8.13;0.70;;;16.90;99.90;;;;;;6161481;23;20210;-93
2022/06/13 05:58:50;;;;;;;1.10;1.00;;;16.00;99.90;;;;;;6185117;23;20264;-93
2022/06/13 06:01:15;;;;;;;1.00;1.00;;;15.30;99.90;;;;;;6209128;23;20202;-94
2022/06/13 06:03:42;;;;;;;0.90;0.70;;;15.30;99.90;;;;;;6160006;23;20201;-92
2022/06/13 06:06:13;;;;;;;1.27;1.00;;;15.30;99.90;;;;;;6209622;23;20158;-89
2022/06/13 06:08:40;;;;;;;3.10;2.00;;;15.50;99.90;;;;;;6210092;23;20219;-94
2022/06/13 06:11:06;;;;;;;5.20;1.00;;;15.50;99.90;;;;;;6211209;23;20206;-91
2022/06/13 06:13:32;;;;;;;2.03;1.23;;;15.40;99.90;;;;;;6210721;23;20198;-92
2022/06/13 06:16:00;;;;;;;2.00;0.77;;;15.30;99.90;;;;;;6161680;23;20701;-92
2022/06/13 06:18:26;;;;;;;1.40;0.87;;;15.30;99.90;;;;;;6161960;23;20201;-90
2022/06/13 06:20:54;;;;;;;1.70;0.83;;;15.60;99.90;;;;;;6186775;23;20526;-93
2022/06/13 06:23:20;;;;;;;0.53;0.50;;;16.00;99.90;;;;;;6186586;23;20957;-93
2022/06/13 06:25:58;;;;;;;5.40;0.80;;;16.00;99.90;;;;;;6163903;23;20205;-93
2022/06/13 06:28:26;;;;;;;0.77;0.47;;;15.70;99.90;;;;;;6216860;23;20742;-93
2022/06/13 06:30:54;;;;;;;9.20;1.70;;;15.20;99.90;;;;;;6205894;23;20193;-95
2022/06/13 06:33:21;;;;;;;1.20;0.70;;;14.90;99.90;;;;;;6191108;23;20607;-95
2022/06/13 06:35:59;;;;;;;2.50;0.80;;;15.30;99.90;;;;;;6199469;23;20174;-93
2022/06/13 06:38:27;;;;;;;1.67;0.57;;;17.50;99.90;;;;;;6199788;23;20228;-96
2022/06/13 06:40:53;;;;;;;3.57;1.03;;;18.40;99.90;;;;;;6194486;23;20273;-92
2022/06/13 06:43:21;;;;;;;4.00;1.03;;;18.20;99.90;;;;;;6213935;23;20186;-94
2022/06/13 06:45:47;;;;;;;1.60;1.00;;;16.50;99.90;;;;;;6217546;23;20201;-92
2022/06/13 06:48:19;;;;;;;3.00;0.80;;;15.90;99.90;;;;;;6177268;23;20162;-90
2022/06/13 06:51:24;;;;;;;1.63;1.17;;;17.50;99.90;;;;;;6197870;23;20689;-95
2022/06/13 06:59:53;;;;;;;0.40;0.40;;;20.30;99.90;;;;;;6216820;23;20190;-92
2022/06/13 07:02:23;;;;;;;1.07;0.57;;;20.70;99.90;;;;;;6196220;23;20225;-93
2022/06/13 07:04:55;;;;;;;3.80;0.77;;;20.40;99.90;;;;;;6196047;23;20229;-96
2022/06/13 07:07:23;;;;;;;2.40;0.90;;;20.70;99.90;;;;;;6223599;23;20215;-95
2022/06/13 07:09:52;;;;;;;0.50;0.50;;;20.70;99.90;;;;;;6225048;23;20217;-95
2022/06/13 07:12:26;;;;;;;3.53;0.90;;;20.50;99.90;;;;;;6225450;23;20158;-92
2022/06/13 07:15:02;;;;;;;1.43;0.93;;;19.40;99.90;;;;;;6225628;22;20162;-93
2022/06/13 07:17:34;;;;;;;2.80;1.00;;;18.90;99.90;;;;;;6227122;23;20208;-93
2022/06/13 07:20:02;;;;;;;3.30;0.90;;;19.90;99.90;;;;;;6225893;23;20216;-95
2022/06/13 07:22:30;;;;;;;2.00;0.83;;;20.40;99.90;;;;;;6224478;23;20194;-95
2022/06/13 07:24:56;;;;;;;0.93;0.70;;;20.00;99.90;;;;;;6220510;23;20277;-92
2022/06/13 07:27:22;;;;;;;3.70;0.90;;;19.30;99.90;;;;;;6213192;23;20729;-91
2022/06/13 07:29:48;;;;;;;2.03;0.60;;;19.80;99.90;;;;;;6213127;23;20154;-94
2022/06/13 07:32:21;;;;;;;0.50;0.50;;;20.40;99.90;;;;;;6163585;23;20202;-94
2022/06/13 07:34:50;;;;;;;2.00;0.80;;;20.10;99.90;;;;;;6212291;23;20198;-94
2022/06/13 07:40:09;;;;;;;1.27;0.70;;;19.30;99.90;;;;;;6211627;23;20201;-91
2022/06/13 07:42:43;;;;;;;7.60;1.67;;;19.90;99.90;;;;;;6187567;23;20583;-95
2022/06/13 07:45:19;;;;;;;6.20;1.33;;;20.40;99.90;;;;;;6182686;23;20252;-94
2022/06/13 07:47:45;;;;;;;1.13;0.80;;;19.40;99.90;;;;;;6212559;23;20142;-92
2022/06/13 07:50:14;;;;;;;1.50;0.93;;;18.30;99.90;;;;;;6192421;23;20198;-91
2022/06/13 07:52:39;;;;;;;2.00;1.13;;;18.30;99.90;;;;;;6212379;23;20252;-94
2022/06/13 07:57:52;;;;;;;3.60;0.87;;;17.90;99.90;;;;;;6190679;23;20214;-93
2022/06/13 08:00:25;;;;;;;1.53;0.80;;;18.90;99.90;;;;;;6187115;23;20197;-93
2022/06/13 08:02:53;;;;;;;4.37;1.47;;;20.40;99.90;;;;;;6215344;23;20480;-93
2022/06/13 08:05:20;;;;;;;0.73;0.73;;;19.70;99.90;;;;;;6189228;23;20198;-93
2022/06/13 08:07:45;;;;;;;4.07;1.50;;;20.00;99.90;;;;;;6150869;23;20748;-92
2022/06/13 08:10:12;;;;;;;1.87;1.43;;;19.60;99.90;;;;;;6190843;23;20194;-92
2022/06/13 08:12:44;;;;;;;1.83;1.23;;;18.10;99.90;;;;;;6177270;23;20943;-93
2022/06/13 08:15:11;;;;;;;3.40;1.50;;;17.10;99.90;;;;;;6216451;23;20181;-91
2022/06/13 08:17:37;;;;;;;1.13;1.03;;;18.20;99.90;;;;;;6213677;23;20756;-93
2022/06/13 08:20:03;;;;;;;0.70;0.60;;;19.90;99.90;;;;;;6215246;23;20194;-92
2022/06/13 08:22:29;;;;;;;3.03;1.10;;;18.50;99.90;;;;;;6212706;23;20742;-91
2022/06/13 08:24:55;;;;;;;1.97;0.90;;;19.10;99.90;;;;;;6187468;23;20197;-93
2022/06/13 08:27:26;;;;;;;4.23;1.00;;;20.30;99.90;;;;;;6212839;23;20216;-95
2022/06/13 08:29:52;;;;;;;6.17;1.23;;;19.80;99.90;;;;;;6162203;23;20142;-88
2022/06/13 08:32:18;;;;;;;0.80;0.80;;;18.60;99.90;;;;;;6208081;23;20232;-90
2022/06/13 08:34:43;;;;;;;1.43;0.93;;;17.70;99.90;;;;;;6183778;23;20202;-91
2022/06/13 08:37:09;;;;;;;2.63;0.80;;;17.20;99.90;;;;;;6184092;23;20224;-91
2022/06/13 08:39:35;;;;;;;1.13;0.80;;;18.00;99.90;;;;;;6161136;23;20209;-91
2022/06/13 08:42:26;;;;;;;3.03;1.07;;;19.30;99.90;;;;;;6167664;23;20225;-95
2022/06/13 08:45:12;;;;;;;3.60;1.30;;;19.70;99.90;;;;;;6219036;23;20149;-95
2022/06/13 08:47:49;;;;;;;2.77;0.93;;;19.30;99.90;;;;;;6215556;23;20546;-95
2022/06/13 08:50:34;;;;;;;2.50;1.00;;;18.80;99.90;;;;;;6217417;23;20185;-95
2022/06/13 08:53:37;;;;;;;3.27;0.77;;;17.90;99.90;;;;;;6185571;23;20257;-90
2022/06/13 08:56:07;;;;;;;3.87;1.13;;;17.40;99.90;;;;;;6212216;23;20218;-91
2022/06/13 08:58:51;;;;;;;6.93;1.90;;;16.90;99.90;;;;;;6215914;23;20206;-95
2022/06/13 09:01:40;;;;;;;1.87;0.70;;;17.50;99.90;;;;;;6221185;23;20202;-93
2022/06/13 09:04:11;;;;;;;3.67;1.47;;;19.00;99.90;;;;;;6198589;23;20194;-92
2022/06/13 09:07:01;;;;;;;4.13;1.20;;;19.00;99.90;;;;;;6195303;23;20197;-91
2022/06/13 09:09:46;;;;;;;1.47;1.00;;;18.90;99.90;;;;;;6208217;23;20214;-95
2022/06/13 09:12:42;;;;;;;4.20;1.20;;;20.30;99.90;;;;;;6222120;23;20174;-95
2022/06/13 09:15:25;;;;;;;2.33;1.00;;;19.40;99.90;;;;;;6161000;23;20166;-91
2022/06/13 09:18:12;;;;;;;1.73;0.70;;;18.00;99.90;;;;;;6223773;23;20161;-93
2022/06/13 09:20:49;;;;;;;1.07;0.80;;;17.60;99.90;;;;;;6223290;23;20189;-93
2022/06/13 09:23:33;;;;;;;2.13;0.87;;;17.20;99.90;;;;;;6223500;23;20565;-95
2022/06/13 09:26:31;;;;;;;4.00;1.03;;;18.50;99.90;;;;;;6222373;23;20185;-93
2022/06/13 09:28:58;;;;;;;0.70;0.70;;;18.90;99.90;;;;;;6222422;23;20208;-94
2022/06/13 09:31:45;;;;;;;1.80;0.50;;;18.00;99.90;;;;;;6196055;23;20205;-95
2022/06/13 09:34:21;;;;;;;4.13;1.30;;;17.80;99.90;;;;;;6220968;23;20185;-93
2022/06/13 09:37:30;;;;;;;9.30;1.87;;;18.40;99.90;;;;;;6225425;23;20693;-93
2022/06/13 09:39:57;;;;;;;3.83;0.87;;;18.40;99.90;;;;;;6223915;23;20217;-92
2022/06/13 09:42:45;;;;;;;2.20;0.60;;;17.50;99.90;;;;;;6200030;23;20253;-94
2022/06/13 09:45:50;;;;;;;4.17;1.10;;;18.20;99.90;;;;;;6222940;23;20162;-95
2022/06/13 09:48:59;;;;;;;2.50;1.30;;;19.20;99.90;;;;;;6232197;23;20563;-92
2022/06/13 09:52:04;;;;;;;1.63;1.00;;;18.10;99.90;;;;;;6229260;23;20220;-92
2022/06/13 09:54:36;;;;;;;3.13;1.50;;;18.30;99.90;;;;;;6225012;23;20204;-96
2022/06/13 09:57:51;;;;;;;0.70;0.50;;;17.70;99.90;;;;;;6227146;23;20217;-95
2022/06/13 10:00:23;;;;;;;3.70;1.33;;;18.20;99.90;;;;;;6136680;23;20188;-92
2022/06/13 10:02:55;;;;;;;2.57;0.93;;;17.90;99.90;;;;;;6190364;23;20599;-89
2022/06/13 10:05:34;;;;;;;3.17;0.70;;;17.60;99.90;;;;;;6209727;23;20580;-87
2022/06/13 10:08:12;;;;;;;3.13;0.70;;;17.40;99.90;;;;;;6209916;23;20194;-89
2022/06/13 10:10:52;;;;;;;0.47;0.47;;;17.80;99.90;;;;;;6209184;23;20224;-88
2022/06/13 10:13:58;;;;;;;3.13;1.23;;;17.60;99.90;;;;;;6209772;23;20190;-86
2022/06/13 10:16:37;;;;;;;2.40;0.80;;;17.60;99.90;;;;;;6184515;23;20252;-88
2022/06/13 10:19:22;;;;;;;2.60;1.13;;;18.80;99.90;;;;;;6209482;23;20732;-87
2022/06/13 10:22:03;;;;;;;6.60;0.87;;;18.20;99.90;;;;;;6209524;23;20217;-90
2022/06/13 10:25:06;;;;;;;1.80;1.07;;;18.70;99.90;;;;;;6210356;23;20197;-89
2022/06/13 10:27:33;;;;;;;4.80;0.70;;;19.80;99.90;;;;;;6209777;23;20197;-91
2022/06/13 10:30:16;;;;;;;1.10;1.03;;;19.80;99.90;;;;;;6211482;23;20163;-91
2022/06/13 10:32:44;;;;;;;1.83;1.07;;;19.60;99.90;;;;;;6210419;23;20189;-88
2022/06/13 10:35:24;;;;;;;8.00;1.43;;;19.20;99.90;;;;;;6209886;23;20213;-88
2022/06/13 10:38:04;;;;;;;2.47;1.00;;;18.80;99.90;;;;;;6209222;23;20289;-88
2022/06/13 10:40:31;;;;;;;3.53;0.97;;;18.80;99.90;;;;;;6209215;23;20205;-88
2022/06/13 10:42:57;;;;;;;5.00;1.10;;;18.10;99.90;;;;;;6209152;23;20197;-89
2022/06/13 10:45:23;;;;;;;2.87;1.37;;;18.10;99.90;;;;;;6184589;23;20256;-89
2022/06/13 10:48:03;;;;;;;2.10;0.83;;;18.10;99.90;;;;;;6185680;23;20162;-88
2022/06/13 10:50:46;;;;;;;4.23;1.10;;;18.90;99.90;;;;;;6209983;23;20217;-89
2022/06/13 10:53:41;;;;;;;2.77;1.20;;;19.30;99.90;;;;;;6211522;23;20198;-89
2022/06/13 10:56:14;;;;;;;6.07;1.27;;;19.00;99.90;;;;;;6208680;23;20209;-88
2022/06/13 10:58:46;;;;;;;1.70;0.90;;;18.10;99.90;;;;;;6208907;23;20202;-89
2022/06/13 11:01:16;;;;;;;0.67;0.53;;;17.50;99.90;;;;;;6209798;23;20220;-89
2022/06/13 11:04:01;;;;;;;4.03;1.33;;;17.90;99.90;;;;;;6209310;23;20213;-88
2022/06/13 11:06:38;;;;;;;3.70;0.93;;;17.70;99.90;;;;;;6209165;23;20276;-88
2022/06/13 11:09:19;;;;;;;1.90;1.13;;;17.50;99.90;;;;;;6209019;23;20165;-89
2022/06/13 11:11:45;;;;;;;0.87;0.60;;;17.10;99.90;;;;;;6210053;23;20181;-88
2022/06/13 11:14:31;;;;;;;1.80;1.13;;;17.50;99.90;;;;;;6184202;23;20216;-90
2022/06/13 11:22:43;;;;;;;1.47;0.97;;;18.40;99.90;;;;;;6210842;23;20236;-89
2022/06/13 11:25:24;;;;;;;3.13;1.00;;;18.20;99.90;;;;;;6209134;23;20204;-88
2022/06/13 11:28:22;;;;;;;7.70;1.30;;;17.80;99.90;;;;;;6209330;23;20198;-88
2022/06/13 11:31:01;;;;;;;1.83;1.03;;;17.90;99.90;;;;;;6156127;23;20248;-88
2022/06/13 11:33:40;;;;;;;0.60;0.60;;;18.30;99.90;;;;;;6209025;23;20200;-89
2022/06/13 11:36:22;;;;;;;3.83;0.80;;;18.40;99.90;;;;;;6209186;23;20161;-88
2022/06/13 11:39:00;;;;;;;7.03;1.27;;;18.60;99.90;;;;;;6209536;23;20178;-89
2022/06/13 11:41:37;;;;;;;1.07;0.90;;;19.30;99.90;;;;;;6209544;23;20170;-89
2022/06/13 11:44:10;;;;;;;1.00;0.90;;;19.10;99.90;;;;;;6208229;23;20225;-89
2022/06/13 11:46:54;;;;;;;3.43;1.30;;;19.00;99.90;;;;;;6207913;23;20194;-88
2022/06/13 11:49:29;;;;;;;2.20;1.10;;;19.20;99.90;;;;;;6207864;23;20569;-89
2022/06/13 11:51:57;;;;;;;1.70;0.97;;;18.20;99.90;;;;;;6208111;23;20308;-89
2022/06/13 11:54:46;;;;;;;4.73;1.03;;;17.60;99.90;;;;;;6208123;23;20554;-88
2022/06/13 11:57:17;;;;;;;1.93;0.63;;;17.20;99.90;;;;;;6207815;23;20445;-89
2022/06/13 11:59:54;;;;;;;3.47;0.90;;;17.00;99.90;;;;;;6208897;23;20739;-90
2022/06/13 12:02:38;;;;;;;1.87;0.80;;;17.10;99.90;;;;;;6208014;23;20213;-87
2022/06/13 12:05:15;;;;;;;0.50;0.50;;;17.20;99.90;;;;;;6207253;23;20663;-87
2022/06/13 12:07:59;;;;;;;4.13;1.07;;;17.10;99.90;;;;;;6206935;23;20201;-88
2022/06/13 12:10:28;;;;;;;0.60;0.40;;;17.00;99.90;;;;;;6207532;23;20562;-87
2022/06/13 12:12:54;;;;;;;0.80;0.80;;;16.70;99.90;;;;;;6207064;23;20651;-89
2022/06/13 12:15:24;;;;;;;0.80;0.50;;;16.60;99.90;;;;;;6183153;23;20208;-86
2022/06/13 12:18:05;;;;;;;1.67;0.40;;;16.60;99.90;;;;;;6183215;23;20514;-90
2022/06/13 12:20:53;;;;;;;1.37;0.90;;;16.70;99.90;;;;;;6208728;23;20496;-86
2022/06/13 12:23:52;;;;;;;1.53;0.80;;;16.90;99.90;;;;;;6208635;23;20205;-86
2022/06/13 12:26:28;;;;;;;2.27;0.90;;;16.70;99.90;;;;;;6209660;23;20190;-87
2022/06/13 12:29:13;;;;;;;2.00;0.80;;;16.60;99.90;;;;;;6208075;23;20209;-89
2022/06/13 12:31:57;;;;;;;1.17;0.70;;;16.40;99.90;;;;;;6208744;23;20284;-89
2022/06/13 12:34:28;;;;;;;3.93;1.10;;;16.70;99.90;;;;;;6207935;23;20202;-89
2022/06/13 12:37:18;;;;;;;0.60;0.60;;;16.80;99.90;;;;;;6207933;23;20268;-87
2022/06/13 12:40:19;;;;;;;2.07;0.63;;;17.00;99.90;;;;;;6207725;23;20302;-88
2022/06/13 12:43:13;;;;;;;0.43;0.43;;;17.90;99.90;;;;;;6208163;23;20197;-88
2022/06/13 12:46:20;;;;;;;4.20;0.70;;;18.00;99.90;;;;;;6207833;23;20202;-88
2022/06/13 12:49:02;;;;;;;0.77;0.60;;;18.30;99.90;;;;;;6166863;23;20205;-88
2022/06/13 12:51:31;;;;;;;5.20;1.57;;;18.40;99.90;;;;;;6208342;23;20277;-89
2022/06/13 12:54:12;;;;;;;0.90;0.57;;;18.00;99.90;;;;;;6209140;23;20162;-88
2022/06/13 12:56:43;;;;;;;0.63;0.47;;;17.30;99.90;;;;;;6208397;23;20210;-88
2022/06/13 12:59:24;;;;;;;2.10;0.50;;;17.20;99.90;;;;;;6207970;23;20524;-88
2022/06/13 13:02:18;;;;;;;0.60;0.60;;;17.30;99.90;;;;;;6208256;23;20198;-88
2022/06/13 13:05:17;;;;;;;2.93;0.60;;;17.90;99.90;;;;;;6208150;23;20238;-87
2022/06/13 13:08:05;;;;;;;1.40;0.83;;;17.80;99.90;;;;;;6152986;23;20650;-87
2022/06/13 13:10:47;;;;;;;2.40;1.23;;;18.10;99.90;;;;;;6208101;23;20284;-87
2022/06/13 13:13:31;;;;;;;1.07;1.00;;;17.80;99.90;;;;;;6207493;23;20208;-85
2022/06/13 13:16:02;;;;;;;2.37;0.83;;;17.70;99.90;;;;;;6207482;23;20202;-85
2022/06/13 13:18:51;;;;;;;4.17;0.73;;;18.00;99.90;;;;;;6209198;23;20197;-85
2022/06/13 13:21:21;;;;;;;6.43;1.03;;;18.30;99.90;;;;;;6210294;23;20217;-85
2022/06/13 13:23:56;;;;;;;5.03;1.17;;;18.00;99.90;;;;;;6211674;23;20216;-88
2022/06/13 13:26:34;;;;;;;0.73;0.73;;;18.60;99.90;;;;;;6210141;23;20530;-86
2022/06/13 13:29:23;;;;;;;1.60;1.13;;;18.00;99.90;;;;;;6209427;23;20204;-87
2022/06/13 13:32:15;;;;;;;1.13;1.03;;;18.50;99.90;;;;;;6209913;23;20197;-90
2022/06/13 13:35:03;;;;;;;1.00;0.90;;;18.60;99.90;;;;;;6209778;23;20204;-89
2022/06/13 13:37:33;;;;;;;0.47;0.47;;;18.10;99.90;;;;;;6209938;23;20198;-87
2022/06/13 13:40:34;;;;;;;1.70;0.83;;;18.10;99.90;;;;;;6209628;23;20210;-88
2022/06/13 13:43:30;;;;;;;5.30;0.90;;;18.20;99.90;;;;;;6210062;23;20717;-88
2022/06/13 13:46:11;;;;;;;1.87;1.00;;;18.30;99.90;;;;;;6209798;23;20221;-88
2022/06/13 13:48:53;;;;;;;0.53;0.50;;;17.40;99.90;;;;;;6209510;23;20205;-89
2022/06/13 13:51:26;;;;;;;0.77;0.40;;;17.40;99.90;;;;;;6210936;23;20150;-87
2022/06/13 13:54:01;;;;;;;2.63;0.90;;;17.90;99.90;;;;;;6209993;23;20162;-88
2022/06/13 13:56:51;;;;;;;0.60;0.60;;;18.20;99.90;;;;;;6209617;23;20236;-88
2022/06/13 13:59:23;;;;;;;1.50;0.80;;;18.20;99.90;;;;;;6209057;23;20216;-86
2022/06/13 14:02:12;;;;;;;0.87;0.80;;;18.50;99.90;;;;;;6208886;23;20248;-87